createdAt,value
2023-01-22T00:04:01.062Z,4104.1
2023-01-22T00:10:22.307Z,4099.1
2023-01-22T00:16:12.524Z,4098.6
2023-01-22T00:21:50.767Z,4096.4
2023-01-22T00:27:52.895Z,4097
2023-01-22T00:33:28.591Z,4097.6
2023-01-22T00:39:09.955Z,4098.2
2023-01-22T00:44:56.759Z,4098.1
2023-01-22T00:50:34.877Z,4097
2023-01-22T00:56:10.365Z,4098.1
2023-01-22T01:01:46.446Z,4096.7
2023-01-22T01:07:21.811Z,4095.4
2023-01-22T01:12:59.916Z,4096
2023-01-22T01:18:46.285Z,4094.4
2023-01-22T01:24:29.476Z,4096.2
2023-01-22T01:30:13.990Z,4093.9
2023-01-22T01:35:55.659Z,4095.2
2023-01-22T01:41:30.992Z,4094.4
2023-01-22T01:47:29.210Z,4091.5
2023-01-22T01:53:15.932Z,4093.2
2023-01-22T01:58:50.785Z,4090
2023-01-22T02:04:45.253Z,4091.7
2023-01-22T02:10:25.501Z,4093.7
2023-01-22T02:16:01.025Z,4093
2023-01-22T02:21:46.720Z,4089.7
2023-01-22T02:27:23.494Z,4089.5
2023-01-22T02:33:00.858Z,4087.8
2023-01-22T02:38:41.911Z,4089.8
2023-01-22T02:46:01.515Z,4086.7
2023-01-22T02:51:37.219Z,4084.8
2023-01-22T02:57:26.872Z,4084.5
2023-01-22T03:03:01.982Z,4084
2023-01-22T03:08:42.259Z,4083.6
2023-01-22T03:14:18.943Z,4083.5
2023-01-22T03:20:18.020Z,4086.3
2023-01-22T03:26:03.195Z,4083.5
2023-01-22T03:31:40.760Z,4082.6
2023-01-22T03:37:25.292Z,4083.6
2023-01-22T03:43:09.312Z,4081
2023-01-22T03:49:07.931Z,4075.3
2023-01-22T03:54:45.067Z,4080.5
2023-01-22T04:00:21.930Z,4081.3
2023-01-22T04:05:58.642Z,4078
2023-01-22T04:11:34.238Z,4078.1
2023-01-22T04:17:56.011Z,4077.8
2023-01-22T04:23:50.831Z,4076.3
2023-01-22T04:29:27.058Z,4073.9
2023-01-22T04:35:04.625Z,4073.6
2023-01-22T04:40:41.785Z,4073.3
2023-01-22T04:46:18.105Z,4075.9
2023-01-22T04:51:53.779Z,4072.6
2023-01-22T04:57:30.061Z,4075.3
2023-01-22T05:03:13.231Z,4073.3
2023-01-22T05:08:48.470Z,4071.8
2023-01-22T05:14:31.182Z,4070.4
2023-01-22T05:20:18.504Z,4070.4
2023-01-22T05:26:24.243Z,4073.1
2023-01-22T05:32:11.573Z,4070.8
2023-01-22T05:37:49.189Z,4068.2
2023-01-22T05:43:31.492Z,4069.4
2023-01-22T05:49:09.300Z,4069.2
2023-01-22T05:54:48.476Z,4066.6
2023-01-22T06:00:23.451Z,4067.7
2023-01-22T06:06:01.671Z,4070.6
2023-01-22T06:11:41.330Z,4067.6
2023-01-22T06:17:16.812Z,4066.7
2023-01-22T06:22:59.560Z,4062.7
2023-01-22T06:28:44.760Z,4066.1
2023-01-22T06:34:42.392Z,4065.1
2023-01-22T06:40:40.267Z,4063
2023-01-22T06:46:19.437Z,4063.4
2023-01-22T06:52:05.310Z,4060.5
2023-01-22T06:58:13.286Z,4059.5
2023-01-22T07:04:04.217Z,4061.2
2023-01-22T07:09:39.883Z,4060.5
2023-01-22T07:15:37.408Z,4057.9
2023-01-22T07:21:20.963Z,4058.5
2023-01-22T07:26:56.552Z,4059.9
2023-01-22T07:32:34.114Z,4059.4
2023-01-22T07:38:09.831Z,4055.7
2023-01-22T07:43:46.564Z,4056.5
2023-01-22T07:49:23.870Z,4066.2
2023-01-22T07:55:07.588Z,4079.6
2023-01-22T08:00:52.561Z,4075.8
2023-01-22T08:06:44.669Z,4084.8
2023-01-22T08:13:05.976Z,4093.4
2023-01-22T08:18:57.333Z,4194
2023-01-22T08:24:48.176Z,4141.4
2023-01-22T08:30:23.931Z,4155.7
2023-01-22T08:36:19.857Z,4149
2023-01-22T08:42:02.708Z,4173.3
2023-01-22T08:47:38.892Z,4190.7
2023-01-22T08:54:06.774Z,4172.6
2023-01-22T09:00:02.901Z,4198.7
2023-01-22T09:05:38.430Z,4201.7
2023-01-22T09:11:23.192Z,4196.4
2023-01-22T09:16:59.552Z,4169.4
2023-01-22T09:22:35.583Z,4173.3
2023-01-22T09:28:10.679Z,4183.5
2023-01-22T09:33:49.789Z,4180.3
2023-01-22T09:39:28.530Z,4190.5
2023-01-22T09:45:07.080Z,4159.7
2023-01-22T09:50:43.419Z,4157.9
2023-01-22T09:56:18.833Z,4150.8
2023-01-22T10:01:54.742Z,4164.4
2023-01-22T10:07:31.378Z,4191.9
2023-01-22T10:13:06.775Z,4189.2
2023-01-22T10:18:58.705Z,4177.8
2023-01-22T10:24:35.114Z,4204.8
2023-01-22T10:30:25.507Z,4164.4
2023-01-22T10:36:07.933Z,4175.4
2023-01-22T10:41:55.613Z,4185
2023-01-22T10:47:53.001Z,4161.4
2023-01-22T10:53:26.244Z,4174.4
2023-01-22T10:59:13.054Z,4170.4
2023-01-22T11:04:48.930Z,4164.9
2023-01-22T11:10:44.546Z,4194.4
2023-01-22T11:16:21.129Z,4182.1
2023-01-22T11:22:01.756Z,4170.2
2023-01-22T11:27:46.309Z,4200.2
2023-01-22T11:33:22.889Z,4183.8
2023-01-22T11:38:58.291Z,4188.2
2023-01-22T11:44:34.854Z,4184.7
2023-01-22T11:50:17.999Z,4191.4
2023-01-22T11:55:55.747Z,4202.2
2023-01-22T12:01:46.168Z,4184.7
2023-01-22T12:07:30.624Z,4178.3
2023-01-22T12:13:14.955Z,4182.3
2023-01-22T12:19:09.862Z,4185.3
2023-01-22T12:25:06.875Z,4177.3
2023-01-22T12:30:47.846Z,4172.8
2023-01-22T12:36:23.161Z,4175.1
2023-01-22T12:41:59.119Z,4159.5
2023-01-22T12:47:34.824Z,4170.7
2023-01-22T12:53:10.960Z,4155.3
2023-01-22T12:58:55.805Z,4162.7
2023-01-22T13:04:31.671Z,4167.4
2023-01-22T13:10:07.144Z,4168.6
2023-01-22T13:16:03.960Z,4172.9
2023-01-22T13:21:46.665Z,4173.8
2023-01-22T13:27:32.641Z,4167.9
2023-01-22T13:33:58.621Z,4175.1
2023-01-22T13:39:40.776Z,4172.6
2023-01-22T13:45:20.312Z,4171.9
2023-01-22T13:50:56.729Z,4171.9
2023-01-22T13:56:32.577Z,4159.4
2023-01-22T14:02:08.596Z,4161
2023-01-22T14:08:06.025Z,4154.3
2023-01-22T14:13:42.025Z,4158.4
2023-01-22T14:19:17.569Z,4153.5
2023-01-22T14:24:53.669Z,4155.5
2023-01-22T14:30:30.924Z,4148.3
2023-01-22T14:36:06.221Z,4148.5
2023-01-22T14:41:41.691Z,4141.4
2023-01-22T14:47:20.672Z,4146.6
2023-01-22T14:52:56.259Z,4145.8
2023-01-22T14:58:34.556Z,4151.2
2023-01-22T15:04:10.148Z,4149.6
2023-01-22T15:09:47.032Z,4148
2023-01-22T15:15:22.664Z,4145.6
2023-01-22T15:20:58.706Z,4142.8
2023-01-22T15:26:49.348Z,4139.4
2023-01-22T15:32:26.303Z,4131.9
2023-01-22T15:38:01.996Z,4129.9
2023-01-22T15:43:37.552Z,4129.7
2023-01-22T15:49:35.922Z,4125
2023-01-22T15:55:09.178Z,4129.7
2023-01-22T16:01:04.193Z,4128
2023-01-22T16:06:53.195Z,4124.2
2023-01-22T16:12:42.458Z,4125.5
2023-01-22T16:18:28.589Z,4124
2023-01-22T16:24:24.998Z,4121
2023-01-22T16:30:08.633Z,4125.4
2023-01-22T16:35:44.579Z,4122.5
2023-01-22T16:41:34.409Z,4121
2023-01-22T16:47:10.690Z,4119.5
2023-01-22T16:52:45.905Z,4119.7
2023-01-22T16:58:26.650Z,4117.8
2023-01-22T17:04:03.850Z,4116.1
2023-01-22T17:09:57.223Z,4116.8
2023-01-22T17:15:34.364Z,4115.5
2023-01-22T17:21:34.705Z,4117.5
2023-01-22T17:27:33.240Z,4116.6
2023-01-22T17:33:09.878Z,4113.5
2023-01-22T17:38:46.107Z,4111.1
2023-01-22T17:44:21.832Z,4114
2023-01-22T17:49:58.051Z,4116
2023-01-22T17:55:34.954Z,4114.5
2023-01-22T18:01:10.626Z,4115.8
2023-01-22T18:06:46.855Z,4117.3
2023-01-22T18:12:22.617Z,4117.1
2023-01-22T18:17:58.023Z,4117.3
2023-01-22T18:23:34.946Z,4115
2023-01-22T18:29:10.525Z,4116.8
2023-01-22T18:34:45.947Z,4119.8
2023-01-22T18:40:22.121Z,4115.6
2023-01-22T18:45:58.774Z,4117.7
2023-01-22T18:51:35.085Z,4120.3
2023-01-22T18:57:11.909Z,4122.8
2023-01-22T19:02:49.288Z,4114.8
2023-01-22T19:08:24.584Z,4116.8
2023-01-22T19:14:00.459Z,4115.8
2023-01-22T19:19:38.362Z,4118.7
2023-01-22T19:25:13.897Z,4118.3
2023-01-22T19:30:50.704Z,4117
2023-01-22T19:36:26.573Z,4120.7
2023-01-22T19:42:03.244Z,4118.3
2023-01-22T19:47:39.565Z,4120.5
2023-01-22T19:53:15.123Z,4119.8
2023-01-22T19:58:50.208Z,4115.6
2023-01-22T20:04:31.720Z,4115.8
2023-01-22T20:10:28.572Z,4120.3
2023-01-22T20:16:05.388Z,4114
2023-01-22T20:21:41.441Z,4114.8
2023-01-22T20:27:25.416Z,4118
2023-01-22T20:33:00.765Z,4112.3
2023-01-22T20:38:38.643Z,4116.1
2023-01-22T20:44:14.896Z,4114.6
2023-01-22T20:49:50.496Z,4117.1
2023-01-22T20:55:26.633Z,4114.8
2023-01-22T21:01:06.042Z,4116.1
2023-01-22T21:06:45.805Z,4111.6
2023-01-22T21:12:22.469Z,4116.6
2023-01-22T21:17:58.160Z,4117.1
2023-01-22T21:23:34.592Z,4112.1
2023-01-22T21:29:16.541Z,4116.3
2023-01-22T21:34:58.697Z,4112.6
2023-01-22T21:40:36.496Z,4107.9
2023-01-22T21:46:12.158Z,4108.9
2023-01-22T21:51:50.379Z,4108.1
2023-01-22T21:57:25.975Z,4107.1
2023-01-22T22:03:01.356Z,4106.6
2023-01-22T22:08:46.137Z,4106.1
2023-01-22T22:14:21.886Z,4105.9
2023-01-22T22:19:57.224Z,4108.1
2023-01-22T22:25:32.838Z,4109.6
2023-01-22T22:31:10.145Z,4104.6
2023-01-22T22:36:47.063Z,4107.8
2023-01-22T22:42:23.713Z,4107.6
2023-01-22T22:47:59.616Z,4105.4
2023-01-22T22:53:40.819Z,4101.6
2023-01-22T22:59:17.218Z,4106.4
2023-01-22T23:04:52.772Z,4101.9
2023-01-22T23:10:29.068Z,4101.4
2023-01-22T23:16:05.761Z,4103.6
2023-01-22T23:21:42.256Z,4101.4
2023-01-22T23:27:17.627Z,4102.1
2023-01-22T23:32:54.310Z,4099.1
2023-01-22T23:38:30.193Z,4100.4
2023-01-22T23:44:05.528Z,4100.4
2023-01-22T23:49:42.804Z,4098.9
2023-01-22T23:55:18.431Z,4100.1
